Aérodrome :
LOGIN :

S'inscrire | Disclaimer

   EN    FR    IT 

 










Légende :    VFR   VFR Marginal   IFR   IFR Intensif   IFR Très Intensif
Visi : 
Plafond : 
>= 8 km
>= 3000ft
5 à 8 km
1000 à 3000 ft
1500m à 5 km
500 à 1000 ft
800 à 1500m
200 à 500 ft
< 800m
< 200 ft
Symboles :   Orages  Brouillard  Fortes neiges  Fortes précipitations  Vent > 20 kt
SIGMETs :   Divers  Orages  Givrage  Turbulence  Onde Orograph.  Cendres Volcan.






- Altitude de l'aérodrome : 102 ft
- Code IATA : EXT


EGTE - Exeter

DERNIER METAR :
  • 150120Z 00000KT 6000 BKN012 18/17 Q1014

METARs EXPIRÉS :
  • 150050Z 00000KT 6000 BKN012 18/17 Q1015
  • 150020Z 32002KT 6000 FEW011 BKN015 18/17 Q1015
  • 142350Z 32001KT 6000 SCT013 SCT035 18/17 Q1015
  • 142320Z 32002KT 6000 SCT014 SCT040 18/17 Q1015
  • 142250Z VRB01KT 7000 SCT012 SCT042 18/17 Q1015

TAF TAF EGTE
Valide du 15 à 00h jusqu'au 15 à 02h UTC


142255Z 1500/1502 VRB02KT 9999 SCT008 BKN016
TEMPO 1500/1502 8000 BKN012
PROB30
TEMPO 1500/1502 VRB15G25KT 3000 +TSRA



MET'MAP, la Météo Aéronautique d'un coup d'oeil ! - Copyright ORBIFLY Décembre 2007 - Disclaimer

ORBIFLY MET'MAP TEAM :

Programmation & Développement : Alexandra Zaïnal
Sur une idée originale de : Baudouin d'Aumeries
Assistance à la programmation : Marc-Olivier Méhu
Soutien technique & logistique : Manuel Goepfert

Contact : metmap@orbifly.com




SOURCES & CREDITS :

   NOAA